Time;durP1;ratioP1;P1;durP2;ratioP2;P2;SDS_P1;SDS_P2;PMS_P1;PMS_P2;Temp;Humidity;BMP_temperature;BMP_pressure;BME280_temperature;BME280_humidity;BME280_pressure;Samples;Min_cycle;Max_cycle;Signal;HPM_P1;HPM_P2
2023/06/22 00:02:04;;;;;;;1999.90;999.90;;;;;;;23.78;88.30;98181.91;5013197;28;20034;-77
2023/06/22 00:04:30;;;;;;;1999.90;999.90;;;;;;;23.89;88.35;98194.88;5012246;28;20084;-73
2023/06/22 00:06:55;;;;;;;1999.90;999.90;;;;;;;23.77;88.98;98183.94;4995251;28;20038;-74
2023/06/22 00:09:20;;;;;;;1999.90;999.90;;;;;;;23.62;90.15;98184.88;5013561;28;20026;-73
2023/06/22 00:11:46;;;;;;;1999.90;999.90;;;;;;;23.65;90.34;98198.06;5012989;28;20076;-74
2023/06/22 00:14:11;;;;;;;1999.90;999.90;;;;;;;23.62;90.07;98184.09;4995124;28;20026;-73
2023/06/22 00:16:36;;;;;;;1999.90;999.90;;;;;;;23.62;89.88;98184.88;5012626;28;20099;-74
2023/06/22 00:19:03;;;;;;;1999.90;999.90;;;;;;;23.60;89.96;98186.44;5012471;28;20036;-74
2023/06/22 00:21:29;;;;;;;1999.90;999.90;;;;;;;23.64;89.34;98204.06;5012926;28;20048;-74
2023/06/22 00:23:54;;;;;;;1999.90;999.90;;;;;;;23.67;89.88;98200.50;5011310;28;20030;-73
2023/06/22 00:26:20;;;;;;;1999.90;999.90;;;;;;;23.61;90.02;98210.41;4995352;28;20039;-73
2023/06/22 00:28:46;;;;;;;1999.90;999.90;;;;;;;23.36;90.97;98205.19;4973273;28;20023;-73
2023/06/22 00:31:11;;;;;;;1999.90;999.90;;;;;;;23.42;90.87;98217.69;4973364;28;20026;-74
2023/06/22 00:33:36;;;;;;;1999.90;999.90;;;;;;;23.35;91.09;98219.50;4973409;28;20027;-73
2023/06/22 00:36:02;;;;;;;1999.90;999.90;;;;;;;23.29;90.95;98207.84;4973331;28;20066;-73
2023/06/22 00:38:28;;;;;;;1999.90;999.90;;;;;;;23.21;91.38;98211.69;4973355;28;20030;-73
2023/06/22 00:40:53;;;;;;;1999.90;999.90;;;;;;;23.24;92.01;98212.94;4973194;28;20683;-73
2023/06/22 00:43:19;;;;;;;1999.90;999.90;;;;;;;23.17;92.49;98210.81;4955742;28;20073;-73
2023/06/22 00:45:44;;;;;;;1999.90;999.90;;;;;;;23.05;92.68;98199.84;4973135;28;20595;-72
2023/06/22 00:48:11;;;;;;;1999.90;999.90;;;;;;;23.11;93.06;98203.94;4973065;28;20026;-73
2023/06/22 00:50:37;;;;;;;1999.90;999.90;;;;;;;23.17;93.24;98204.44;4973679;28;20109;-72
2023/06/22 00:53:10;;;;;;;1999.90;999.90;;;;;;;23.17;92.69;98191.28;4972929;28;20125;-72
2023/06/22 00:55:38;;;;;;;1999.90;999.90;;;;;;;23.15;92.60;98167.72;4972947;28;20062;-72
2023/06/22 00:58:07;;;;;;;1999.90;999.90;;;;;;;23.09;93.00;98172.78;4972635;28;20050;-72
2023/06/22 01:00:33;;;;;;;1999.90;999.90;;;;;;;23.04;94.27;98180.66;4973008;28;20031;-72
2023/06/22 01:02:58;;;;;;;1999.90;999.90;;;;;;;22.93;95.27;98186.03;4972547;28;20031;-72
2023/06/22 01:05:24;;;;;;;1999.90;999.90;;;;;;;22.93;95.61;98186.03;4972695;28;20065;-72
2023/06/22 01:08:16;;;;;;;1999.90;999.90;;;;;;;22.83;96.36;98187.50;4972534;28;20126;-72
2023/06/22 01:10:52;;;;;;;1999.90;999.90;;;;;;;22.80;97.29;98193.00;4972589;28;20031;-73
2023/06/22 01:13:41;;;;;;;1999.90;999.90;;;;;;;22.89;97.00;98191.59;4972367;28;20515;-73
2023/06/22 01:16:29;;;;;;;1999.90;999.90;;;;;;;22.91;97.04;98171.66;4972550;28;20899;-72
2023/06/22 01:18:57;;;;;;;1999.90;999.90;;;;;;;22.93;96.94;98175.69;4954865;28;20058;-72
2023/06/22 01:21:27;;;;;;;1999.90;999.90;;;;;;;22.91;96.50;98174.47;4956008;28;20027;-72
2023/06/22 01:24:23;;;;;;;1999.90;999.90;;;;;;;22.87;95.67;98171.59;4972514;28;20062;-72
2023/06/22 01:26:52;;;;;;;;;;;;;;;22.80;95.78;98176.25;4939152;28;20073;-71
2023/06/22 01:29:18;;;;;;;1999.90;999.90;;;;;;;22.71;96.03;98172.91;4954975;28;20009;-72
2023/06/22 01:31:45;;;;;;;1999.90;999.90;;;;;;;22.65;96.07;98168.75;4972165;28;20027;-72
2023/06/22 01:34:12;;;;;;;1999.90;999.90;;;;;;;22.67;96.59;98172.03;4954990;28;20031;-73
2023/06/22 01:36:39;;;;;;;1999.90;999.90;;;;;;;22.57;97.22;98156.66;4972043;28;20105;-72
2023/06/22 01:39:05;;;;;;;1999.90;999.90;;;;;;;22.45;98.17;98154.03;4972261;28;20073;-73
2023/06/22 01:41:34;;;;;;;1999.90;999.90;;;;;;;22.37;99.00;98144.72;4972215;28;20502;-72
2023/06/22 01:44:01;;;;;;;1999.90;999.90;;;;;;;22.37;100.00;98155.88;4958345;28;20073;-73
2023/06/22 01:46:26;;;;;;;1999.90;999.90;;;;;;;22.36;100.00;98154.28;4975316;28;20022;-72
2023/06/22 01:48:52;;;;;;;1999.90;999.90;;;;;;;22.41;100.00;98156.75;4972169;28;20150;-73
2023/06/22 01:51:18;;;;;;;1999.90;999.90;;;;;;;22.46;99.89;98168.78;4955105;28;20031;-73
2023/06/22 01:53:43;;;;;;;1999.90;999.90;;;;;;;22.40;99.96;98157.91;4971737;28;20027;-73
2023/06/22 01:56:09;;;;;;;1999.90;999.90;;;;;;;22.38;100.00;98157.47;4955339;28;20023;-72
2023/06/22 01:58:41;;;;;;;1999.90;999.90;;;;;;;22.40;100.00;98159.88;4971779;28;20551;-73
2023/06/22 02:01:10;;;;;;;1999.90;999.90;;;;;;;22.29;100.00;98148.53;4970523;28;20019;-73
2023/06/22 02:03:46;;;;;;;1999.90;999.90;;;;;;;22.39;100.00;98161.09;4971956;28;20117;-73
2023/06/22 02:06:21;;;;;;;1999.90;999.90;;;;;;;22.38;100.00;98151.91;4972013;28;20027;-74
2023/06/22 02:08:53;;;;;;;1999.90;999.90;;;;;;;22.35;100.00;98152.66;4971573;28;20026;-72
2023/06/22 02:11:21;;;;;;;1999.90;999.90;;;;;;;22.37;100.00;98152.25;4954431;28;20031;-72
2023/06/22 02:13:46;;;;;;;1999.90;999.90;;;;;;;22.35;100.00;98154.63;4971707;28;20026;-72
2023/06/22 02:16:14;;;;;;;1999.90;999.90;;;;;;;22.34;100.00;98158.56;4991604;28;20041;-72
2023/06/22 02:18:46;;;;;;;1999.90;999.90;;;;;;;22.17;100.00;98153.47;5010711;28;20026;-73
2023/06/22 02:21:11;;;;;;;1999.90;999.90;;;;;;;22.13;100.00;98153.38;4993426;28;20494;-73
2023/06/22 02:23:37;;;;;;;1999.90;999.90;;;;;;;22.05;100.00;98145.25;4985497;28;20046;-73
2023/06/22 02:26:03;;;;;;;1999.90;999.90;;;;;;;21.93;100.00;98143.38;4989165;28;20046;-73
2023/06/22 02:28:28;;;;;;;1999.90;999.90;;;;;;;21.95;100.00;98141.06;5005462;28;20026;-73
2023/06/22 02:30:54;;;;;;;1999.90;999.90;;;;;;;22.04;100.00;98140.84;4992807;28;20088;-73
2023/06/22 02:33:19;;;;;;;1999.90;999.90;;;;;;;22.14;100.00;98148.63;5010469;28;20034;-72
2023/06/22 02:35:47;;;;;;;1999.90;999.90;;;;;;;22.08;100.00;98139.75;5010322;28;20030;-73
2023/06/22 02:38:13;;;;;;;1999.90;999.90;;;;;;;22.03;100.00;98142.81;5010524;28;20112;-74
2023/06/22 02:40:39;;;;;;;1999.90;999.90;;;;;;;21.78;100.00;98106.03;4992792;28;20037;-73
2023/06/22 02:43:04;;;;;;;1999.90;999.90;;;;;;;21.96;100.00;98139.09;4992871;28;20069;-72
2023/06/22 02:45:29;;;;;;;1999.90;999.90;;;;;;;21.95;100.00;98152.19;5010098;28;20030;-73
2023/06/22 02:47:55;;;;;;;1999.90;999.90;;;;;;;21.97;100.00;98132.31;5013979;28;20529;-72
2023/06/22 02:50:21;;;;;;;1999.90;999.90;;;;;;;21.97;100.00;98137.88;5014116;28;20651;-73
2023/06/22 02:52:46;;;;;;;1999.90;999.90;;;;;;;21.68;100.00;98130.84;4997204;28;20030;-73
2023/06/22 02:55:11;;;;;;;1999.90;999.90;;;;;;;21.55;100.00;98124.59;4994585;28;20045;-73
2023/06/22 02:57:37;;;;;;;1999.90;999.90;;;;;;;21.68;100.00;98142.81;4994706;28;20033;-75
2023/06/22 03:00:16;;;;;;;1999.90;999.90;;;;;;;21.71;100.00;98146.84;4977132;28;20042;-73
2023/06/22 03:02:41;;;;;;;1999.90;999.90;;;;;;;21.77;100.00;98140.63;4976857;28;20038;-73
2023/06/22 03:05:09;;;;;;;1999.90;999.90;;;;;;;21.86;100.00;98143.22;4994383;28;20045;-74
2023/06/22 03:07:35;;;;;;;1999.90;999.90;;;;;;;21.96;100.00;98137.06;4994253;28;20503;-73
2023/06/22 03:10:00;;;;;;;1999.90;999.90;;;;;;;21.92;100.00;98141.78;4994406;28;20026;-73
2023/06/22 03:12:25;;;;;;;1999.90;999.90;;;;;;;21.88;100.00;98140.88;4994367;28;20026;-73
2023/06/22 03:14:51;;;;;;;1999.90;999.90;;;;;;;21.79;100.00;98132.72;4994200;28;20108;-73
2023/06/22 03:17:16;;;;;;;1999.90;999.90;;;;;;;21.73;100.00;98127.81;4994051;28;20361;-73
2023/06/22 03:19:41;;;;;;;1999.90;999.90;;;;;;;21.64;100.00;98129.97;4994141;28;20037;-73
2023/06/22 03:22:07;;;;;;;1999.90;999.90;;;;;;;21.65;100.00;98148.28;4994474;28;20023;-73
2023/06/22 03:24:39;;;;;;;1999.90;999.90;;;;;;;21.68;100.00;98147.56;4993960;28;20030;-73
2023/06/22 03:27:05;;;;;;;1999.90;999.90;;;;;;;21.67;100.00;98145.97;4976392;28;20479;-74
2023/06/22 03:29:31;;;;;;;1999.90;999.90;;;;;;;21.71;100.00;98142.06;4993939;28;20436;-73
2023/06/22 03:31:56;;;;;;;1999.90;999.90;;;;;;;21.73;100.00;98147.28;4993963;28;20108;-74
2023/06/22 03:34:21;;;;;;;1999.90;999.90;;;;;;;21.66;100.00;98144.34;4994027;28;20027;-73
2023/06/22 03:36:47;;;;;;;1999.90;999.90;;;;;;;21.64;100.00;98149.47;4976268;28;20049;-73
2023/06/22 03:39:12;;;;;;;1999.90;999.90;;;;;;;21.55;100.00;98154.44;4971930;28;20059;-73
2023/06/22 03:41:38;;;;;;;1999.90;999.90;;;;;;;21.49;100.00;98150.31;4983753;28;20011;-75
2023/06/22 03:44:04;;;;;;;1999.90;999.90;;;;;;;21.48;100.00;98148.69;4974097;28;20038;-73
2023/06/22 03:46:29;;;;;;;1999.90;999.90;;;;;;;21.50;100.00;98149.13;4989485;28;20026;-73
2023/06/22 03:48:54;;;;;;;1999.90;999.90;;;;;;;21.44;100.00;98159.75;4993208;28;20030;-74
2023/06/22 03:51:20;;;;;;;1999.90;999.90;;;;;;;21.43;100.00;98151.75;4975930;28;20042;-75
2023/06/22 03:53:45;;;;;;;1999.90;999.90;;;;;;;21.46;100.00;98157.41;4976639;28;20061;-76
2023/06/22 03:56:10;;;;;;;1999.90;999.90;;;;;;;21.51;100.00;98153.53;5000927;28;20041;-75
2023/06/22 03:58:36;;;;;;;1999.90;999.90;;;;;;;21.57;100.00;98163.22;4983063;28;21449;-75
2023/06/22 04:01:02;;;;;;;1999.90;999.90;;;;;;;21.65;100.00;98171.38;4974838;28;20053;-75
2023/06/22 04:03:27;;;;;;;1999.90;999.90;;;;;;;21.67;100.00;98162.69;4973699;28;20399;-75
2023/06/22 04:05:52;;;;;;;1999.90;999.90;;;;;;;21.76;100.00;98160.50;4974527;28;20037;-74
2023/06/22 04:08:18;;;;;;;1999.90;999.90;;;;;;;21.82;100.00;98170.19;4981359;28;20042;-77
2023/06/22 04:10:43;;;;;;;1999.90;999.90;;;;;;;21.82;100.00;98161.81;4974888;28;20831;-76
2023/06/22 04:13:09;;;;;;;1999.90;999.90;;;;;;;21.86;100.00;98159.94;4974662;28;20031;-77
2023/06/22 04:15:34;;;;;;;1999.90;999.90;;;;;;;21.92;100.00;98164.06;4975118;28;20105;-78
2023/06/22 04:17:59;;;;;;;1999.90;999.90;;;;;;;22.08;100.00;98162.03;4975684;28;20061;-80
2023/06/22 04:20:28;;;;;;;1999.90;999.90;;;;;;;22.27;100.00;98159.22;4974952;28;20066;-82
2023/06/22 04:22:54;;;;;;;1999.90;999.90;;;;;;;22.35;100.00;98168.56;4975291;28;20031;-81
2023/06/22 04:25:19;;;;;;;1999.90;999.90;;;;;;;22.31;100.00;98170.47;4981073;28;20038;-83
2023/06/22 04:27:45;;;;;;;1999.90;999.90;;;;;;;22.25;100.00;98174.72;4994639;28;20033;-80
2023/06/22 04:30:11;;;;;;;1999.90;999.90;;;;;;;22.28;100.00;98177.59;4975438;28;20068;-79
2023/06/22 04:32:37;;;;;;;1999.90;999.90;;;;;;;22.36;100.00;98172.97;4975964;28;20129;-78
2023/06/22 04:35:04;;;;;;;1999.90;999.90;;;;;;;22.43;100.00;98173.91;5007298;28;20105;-79
2023/06/22 04:37:30;;;;;;;1999.90;999.90;;;;;;;22.42;100.00;98169.53;5011832;28;20060;-80
2023/06/22 04:39:56;;;;;;;1999.90;999.90;;;;;;;22.39;100.00;98163.88;5012208;28;20104;-79
2023/06/22 04:42:21;;;;;;;1999.90;999.90;;;;;;;22.41;100.00;98173.47;5017307;28;20121;-79
2023/06/22 04:44:46;;;;;;;1999.90;999.90;;;;;;;22.38;100.00;98171.44;5011494;28;20026;-76
2023/06/22 04:47:12;;;;;;;1999.90;999.90;;;;;;;22.46;100.00;98163.22;4994195;28;20026;-80
2023/06/22 04:49:37;;;;;;;1999.90;999.90;;;;;;;22.37;100.00;98167.00;5011940;28;20201;-79
2023/06/22 04:52:07;;;;;;;1999.90;999.90;;;;;;;22.48;100.00;98172.00;5012378;28;20034;-77
2023/06/22 04:54:33;;;;;;;1999.90;999.90;;;;;;;22.40;100.00;98173.81;5012709;28;20179;-78
2023/06/22 04:57:00;;;;;;;1999.90;999.90;;;;;;;22.41;100.00;98176.25;5012279;28;20106;-82
2023/06/22 04:59:29;;;;;;;1999.90;999.90;;;;;;;22.50;100.00;98178.00;4994098;28;20061;-80
2023/06/22 05:01:59;;;;;;;1999.90;999.90;;;;;;;22.75;100.00;98182.94;5011775;28;20029;-79
2023/06/22 05:04:25;;;;;;;1999.90;999.90;;;;;;;22.85;100.00;98185.13;5011489;28;20076;-74
2023/06/22 05:06:51;;;;;;;1999.90;999.90;;;;;;;22.87;100.00;98187.53;4985282;28;20035;-76
2023/06/22 05:09:17;;;;;;;1999.90;999.90;;;;;;;23.05;100.00;98185.91;4983667;28;20145;-76
2023/06/22 05:11:46;;;;;;;1999.90;999.90;;;;;;;23.14;100.00;98191.22;4991436;28;20125;-75
2023/06/22 05:14:12;;;;;;;1999.90;999.90;;;;;;;23.24;100.00;98187.81;4972781;28;20168;-76
2023/06/22 05:16:38;;;;;;;1999.90;999.90;;;;;;;23.26;100.00;98191.03;4972995;28;20031;-76
2023/06/22 05:19:03;;;;;;;1999.90;999.90;;;;;;;23.28;100.00;98183.06;4982098;28;20022;-77
2023/06/22 05:21:30;;;;;;;1999.90;999.90;;;;;;;23.33;100.00;98185.56;5011177;28;20033;-75
2023/06/22 05:24:00;;;;;;;1999.90;999.90;;;;;;;23.60;100.00;98190.03;5011541;28;20045;-77
2023/06/22 05:26:30;;;;;;;1999.90;999.90;;;;;;;23.63;100.00;98185.69;5011381;28;20025;-74
2023/06/22 05:28:55;;;;;;;1999.90;999.90;;;;;;;23.77;100.00;98186.72;5011488;28;20034;-77
2023/06/22 05:31:21;;;;;;;1999.90;999.90;;;;;;;23.89;100.00;98188.47;4993738;28;20032;-78
2023/06/22 05:33:47;;;;;;;1999.90;999.90;;;;;;;23.76;99.53;98189.88;5010564;28;20033;-78
2023/06/22 05:36:13;;;;;;;1999.90;999.90;;;;;;;23.78;99.48;98190.28;5011453;28;20508;-76
2023/06/22 05:38:39;;;;;;;1999.90;999.90;;;;;;;23.98;98.23;98197.41;5011311;28;20124;-80
2023/06/22 05:41:06;;;;;;;1999.90;999.90;;;;;;;24.19;95.95;98200.50;5003795;28;20056;-78
2023/06/22 05:43:31;;;;;;;1999.90;999.90;;;;;;;23.99;93.70;98190.63;5010471;28;20034;-76
2023/06/22 05:45:57;;;;;;;1999.90;999.90;;;;;;;23.93;93.53;98186.56;4993703;28;20029;-76
2023/06/22 05:48:22;;;;;;;1999.90;999.90;;;;;;;24.07;94.44;98188.72;5013313;28;20124;-74
2023/06/22 05:50:47;;;;;;;1999.90;999.90;;;;;;;24.18;93.86;98186.94;5012620;28;20058;-75
2023/06/22 05:53:13;;;;;;;1999.90;999.90;;;;;;;24.38;92.07;98194.78;5012292;28;20034;-82
2023/06/22 05:55:38;;;;;;;1999.90;999.90;;;;;;;24.92;85.95;98190.63;5007373;28;20046;-73
2023/06/22 05:58:03;;;;;;;1999.90;999.90;;;;;;;25.11;84.38;98186.81;4991324;28;20111;-73
2023/06/22 06:00:29;;;;;;;1999.90;999.90;;;;;;;25.11;84.08;98195.22;4991399;28;20061;-73
2023/06/22 06:02:55;;;;;;;1999.90;999.90;;;;;;;25.10;84.95;98205.59;4994968;28;20489;-71
2023/06/22 06:05:20;;;;;;;1999.90;999.90;;;;;;;25.14;84.71;98203.66;5015646;28;20072;-75
2023/06/22 06:07:46;;;;;;;1999.90;999.90;;;;;;;25.31;84.34;98202.22;5016044;28;20037;-74
2023/06/22 06:10:11;;;;;;;1999.90;999.90;;;;;;;25.23;85.08;98194.94;4992659;28;20038;-75
2023/06/22 06:12:37;;;;;;;1999.90;999.90;;;;;;;25.39;84.95;98196.28;4992628;28;20026;-77
2023/06/22 06:15:03;;;;;;;1999.90;999.90;;;;;;;25.71;84.26;98198.56;4988222;28;20483;-74
2023/06/22 06:17:28;;;;;;;1999.90;999.90;;;;;;;25.75;83.63;98210.63;4989901;28;20743;-74
2023/06/22 06:19:53;;;;;;;1999.90;999.90;;;;;;;25.70;81.66;98208.97;4992918;28;20029;-75
2023/06/22 06:22:20;;;;;;;1999.90;999.90;;;;;;;26.01;82.77;98216.00;4989080;28;20133;-73
2023/06/22 06:24:47;;;;;;;1999.90;999.90;;;;;;;26.19;79.60;98208.53;4990160;28;20105;-73
2023/06/22 06:27:13;;;;;;;1999.90;999.90;;;;;;;26.57;78.61;98209.91;4989506;28;20505;-73
2023/06/22 06:29:38;;;;;;;1999.90;999.90;;;;;;;25.73;81.14;98204.59;4989926;28;20034;-72
2023/06/22 06:32:04;;;;;;;1999.90;999.90;;;;;;;26.10;81.09;98200.44;4991072;28;20038;-72
2023/06/22 06:34:29;;;;;;;1999.90;999.90;;;;;;;26.43;78.38;98196.66;4991414;28;20484;-72
2023/06/22 06:36:54;;;;;;;1999.90;999.90;;;;;;;26.85;77.05;98196.00;4991521;28;20051;-73
2023/06/22 06:39:20;;;;;;;1999.90;999.90;;;;;;;26.58;76.29;98197.50;4987925;28;20022;-72
2023/06/22 06:41:45;;;;;;;1999.90;999.90;;;;;;;26.55;77.44;98190.69;4989749;28;20042;-73
2023/06/22 06:44:11;;;;;;;1999.90;999.90;;;;;;;26.10;78.15;98192.03;4988297;28;20480;-75
2023/06/22 06:46:36;;;;;;;1999.90;999.90;;;;;;;26.50;76.23;98190.25;4989554;28;20038;-73
2023/06/22 06:49:02;;;;;;;1999.90;999.90;;;;;;;26.49;76.37;98195.06;4990098;28;20034;-74
2023/06/22 06:51:27;;;;;;;1999.90;999.90;;;;;;;26.87;73.25;98198.44;4989204;28;20026;-76
2023/06/22 06:53:52;;;;;;;1999.90;999.90;;;;;;;27.32;73.06;98194.91;4988134;28;20108;-73
2023/06/22 06:56:17;;;;;;;1999.90;999.90;;;;;;;27.85;69.52;98196.94;4989859;28;20030;-74
2023/06/22 06:58:44;;;;;;;1999.90;999.90;;;;;;;28.18;69.08;98191.69;4989440;28;20296;-72
2023/06/22 07:01:10;;;;;;;1999.90;999.90;;;;;;;28.06;68.62;98197.75;4989842;28;20033;-73
2023/06/22 07:03:35;;;;;;;1999.90;999.90;;;;;;;27.81;68.46;98190.50;4991071;28;20390;-73
2023/06/22 07:06:01;;;;;;;1999.90;999.90;;;;;;;27.83;68.61;98191.72;4980980;28;20025;-73
2023/06/22 07:08:26;;;;;;;1999.90;999.90;;;;;;;27.86;68.38;98192.91;4997568;28;20022;-72
2023/06/22 07:10:52;;;;;;;1999.90;999.90;;;;;;;27.99;67.23;98194.09;5000708;28;20021;-74
2023/06/22 07:13:18;;;;;;;1999.90;999.90;;;;;;;28.14;66.45;98181.63;4997077;28;20032;-74
2023/06/22 07:15:43;;;;;;;1999.90;999.90;;;;;;;27.90;67.72;98182.47;4997088;28;20030;-73
2023/06/22 07:18:08;;;;;;;1999.90;999.90;;;;;;;28.19;66.92;98178.41;4999090;28;20022;-73
2023/06/22 07:20:34;;;;;;;1999.90;999.90;;;;;;;28.28;66.07;98180.78;4998866;28;20114;-74
2023/06/22 07:23:00;;;;;;;1999.90;999.90;;;;;;;28.08;65.05;98178.44;4997722;28;20054;-73
2023/06/22 07:25:25;;;;;;;1999.90;999.90;;;;;;;27.12;69.13;98174.00;5000743;28;20033;-72
2023/06/22 07:28:01;;;;;;;1999.90;999.90;;;;;;;27.75;67.76;98176.06;4981300;28;20022;-76
2023/06/22 07:30:26;;;;;;;1999.90;999.90;;;;;;;27.69;67.89;98172.06;4995776;28;20496;-73
2023/06/22 07:32:52;;;;;;;1999.90;999.90;;;;;;;28.14;66.56;98168.38;4999405;28;20022;-72
2023/06/22 07:35:17;;;;;;;1999.90;999.90;;;;;;;28.07;66.86;98173.19;4984284;28;20061;-73
2023/06/22 07:37:42;;;;;;;1999.90;999.90;;;;;;;28.33;66.66;98177.56;5006739;28;20104;-73
2023/06/22 07:40:09;;;;;;;1999.90;999.90;;;;;;;28.36;65.82;98179.56;5008499;28;20037;-73
2023/06/22 07:42:34;;;;;;;1999.90;999.90;;;;;;;28.31;65.37;98169.53;5011676;28;20629;-73
2023/06/22 07:45:00;;;;;;;1999.90;999.90;;;;;;;28.86;64.39;98168.88;5012847;28;20045;-73
2023/06/22 07:47:27;;;;;;;1999.90;999.90;;;;;;;29.05;62.25;98166.34;5012245;28;20026;-73
2023/06/22 07:49:54;;;;;;;1999.90;999.90;;;;;;;29.41;60.01;98164.13;5012328;28;20067;-73
2023/06/22 07:52:20;;;;;;;1999.90;999.90;;;;;;;29.62;59.04;98168.78;5012281;28;20046;-73
2023/06/22 07:54:46;;;;;;;1999.90;999.90;;;;;;;29.73;60.68;98164.63;5013442;28;20026;-73
2023/06/22 07:57:11;;;;;;;1999.90;999.90;;;;;;;29.60;59.65;98166.34;5012941;28;20046;-74
2023/06/22 07:59:37;;;;;;;1999.90;999.90;;;;;;;29.79;58.27;98164.19;4995194;28;20057;-74
2023/06/22 08:02:05;;;;;;;1999.90;999.90;;;;;;;29.85;57.92;98169.00;5012967;28;20034;-75
2023/06/22 08:04:33;;;;;;;1999.90;999.90;;;;;;;30.09;58.53;98169.94;5002410;28;20040;-75
2023/06/22 08:07:03;;;;;;;1999.90;999.90;;;;;;;30.39;57.32;98164.38;5003100;28;20034;-74
2023/06/22 08:09:30;;;;;;;1999.90;999.90;;;;;;;30.93;55.12;98164.47;5001870;28;20030;-74
2023/06/22 08:11:56;;;;;;;1999.90;999.90;;;;;;;30.57;56.06;98162.16;5002575;28;20022;-74
2023/06/22 08:14:22;;;;;;;1999.90;999.90;;;;;;;30.91;55.97;98164.94;5000857;28;20019;-76
2023/06/22 08:16:47;;;;;;;1999.90;999.90;;;;;;;31.12;54.06;98170.28;5002241;28;20104;-74
2023/06/22 08:19:13;;;;;;;1999.90;999.90;;;;;;;31.56;53.02;98172.03;5002286;28;20045;-73
2023/06/22 08:21:38;;;;;;;1999.90;999.90;;;;;;;31.65;53.43;98175.13;4998100;28;20042;-76
2023/06/22 08:24:04;;;;;;;1999.90;999.90;;;;;;;32.01;52.10;98180.16;5003208;28;20038;-74
2023/06/22 08:26:29;;;;;;;1999.90;999.90;;;;;;;31.56;52.63;98174.06;4988850;28;20026;-76
2023/06/22 08:28:54;;;;;;;1999.90;999.90;;;;;;;31.55;53.43;98176.09;5007953;28;20029;-75
2023/06/22 08:31:20;;;;;;;1999.90;999.90;;;;;;;30.45;56.08;98168.34;4999790;28;20310;-75
2023/06/22 08:33:46;;;;;;;1999.90;999.90;;;;;;;31.04;56.20;98160.31;5000910;28;20109;-77
2023/06/22 08:36:13;;;;;;;1999.90;999.90;;;;;;;31.80;53.64;98167.97;5001293;28;20041;-76
2023/06/22 08:38:38;;;;;;;1999.90;999.90;;;;;;;31.64;52.59;98167.09;4984892;28;20384;-76
2023/06/22 08:41:04;;;;;;;1999.90;999.90;;;;;;;31.45;54.42;98159.28;5000722;28;20033;-73
2023/06/22 08:43:29;;;;;;;1999.90;999.90;;;;;;;30.90;56.31;98154.03;5001460;28;20132;-75
2023/06/22 08:45:54;;;;;;;1999.90;999.90;;;;;;;30.95;57.43;98159.25;5002214;28;20463;-74
2023/06/22 08:48:20;;;;;;;1999.90;999.90;;;;;;;31.27;54.89;98156.72;5006802;28;20014;-76
2023/06/22 08:50:45;;;;;;;1999.90;999.90;;;;;;;31.87;52.14;98152.09;5009957;28;20017;-76
2023/06/22 08:53:10;;;;;;;1999.90;999.90;;;;;;;32.05;52.23;98152.59;5011758;28;20030;-75
2023/06/22 08:55:35;;;;;;;1999.90;999.90;;;;;;;32.68;50.88;98140.00;5011996;28;20018;-77
2023/06/22 08:58:01;;;;;;;1999.90;999.90;;;;;;;32.71;50.28;98146.81;5012699;28;20026;-75
2023/06/22 09:00:28;;;;;;;1999.90;999.90;;;;;;;32.87;50.20;98146.88;5011581;28;20056;-74
2023/06/22 09:02:58;;;;;;;1999.90;999.90;;;;;;;32.67;49.19;98143.28;4985582;28;20015;-75
2023/06/22 09:05:25;;;;;;;1999.90;999.90;;;;;;;32.51;49.22;98134.69;4971271;28;20035;-76
2023/06/22 09:07:50;;;;;;;1999.90;999.90;;;;;;;32.13;50.23;98129.38;4972388;28;20038;-76
2023/06/22 09:10:15;;;;;;;1999.90;999.90;;;;;;;32.28;49.69;98130.69;4972097;28;20034;-75
2023/06/22 09:12:44;;;;;;;1999.90;999.90;;;;;;;32.81;48.89;98131.63;4955023;28;20026;-74
2023/06/22 09:15:10;;;;;;;1999.90;999.90;;;;;;;32.96;48.06;98121.53;4985004;28;20399;-74
2023/06/22 09:17:36;;;;;;;1999.90;999.90;;;;;;;32.98;47.26;98119.09;4991659;28;20041;-75
2023/06/22 09:20:05;;;;;;;1999.90;999.90;;;;;;;32.79;46.67;98117.91;4991228;28;20077;-73
2023/06/22 09:22:31;;;;;;;1999.90;999.90;;;;;;;32.56;48.07;98118.00;4991446;28;20455;-78
2023/06/22 09:24:56;;;;;;;1999.90;999.90;;;;;;;32.57;47.86;98108.28;4990593;28;20832;-78
2023/06/22 09:27:22;;;;;;;1999.90;999.90;;;;;;;32.80;47.64;98125.13;4990771;28;20034;-77
2023/06/22 09:29:50;;;;;;;1999.90;999.90;;;;;;;32.81;47.20;98115.41;4991629;28;20022;-78
2023/06/22 09:32:17;;;;;;;1999.90;999.90;;;;;;;32.59;47.99;98105.78;4990356;28;20034;-78
2023/06/22 09:34:42;;;;;;;1999.90;999.90;;;;;;;33.04;46.36;98110.84;4990999;28;20164;-80
2023/06/22 09:37:08;;;;;;;1999.90;999.90;;;;;;;31.80;49.10;98105.72;4970280;28;20134;-78
2023/06/22 09:39:33;;;;;;;1999.90;999.90;;;;;;;31.98;49.18;98107.41;4970809;28;20023;-78
2023/06/22 09:42:00;;;;;;;1999.90;999.90;;;;;;;32.45;49.13;98110.94;4970853;28;20031;-79
2023/06/22 09:44:25;;;;;;;1999.90;999.90;;;;;;;32.97;47.38;98111.00;4975378;28;20288;-78
2023/06/22 09:46:50;;;;;;;1999.90;999.90;;;;;;;32.95;47.41;98108.63;4974156;28;20027;-78
2023/06/22 09:49:16;;;;;;;1999.90;999.90;;;;;;;33.08;47.14;98103.06;4974338;28;20023;-79
2023/06/22 09:51:41;;;;;;;1999.90;999.90;;;;;;;32.24;47.70;98098.00;4977235;28;20547;-79
2023/06/22 09:54:06;;;;;;;1999.90;999.90;;;;;;;32.44;47.24;98100.81;4980359;28;20468;-78
2023/06/22 09:56:32;;;;;;;1999.90;999.90;;;;;;;32.22;46.97;98083.50;4976064;28;20272;-79
2023/06/22 09:58:57;;;;;;;1999.90;999.90;;;;;;;32.22;46.56;98089.16;4971873;28;20018;-80
2023/06/22 10:01:23;;;;;;;1999.90;999.90;;;;;;;31.30;49.98;98097.28;4972164;28;20034;-80
2023/06/22 10:03:48;;;;;;;1999.90;999.90;;;;;;;32.11;48.42;98097.09;4970232;28;20058;-78
2023/06/22 10:06:14;;;;;;;1999.90;999.90;;;;;;;32.36;47.39;98097.34;4970906;28;20118;-78
2023/06/22 10:08:40;;;;;;;1999.90;999.90;;;;;;;32.20;45.78;98086.75;4972253;28;20030;-80
2023/06/22 10:11:06;;;;;;;1999.90;999.90;;;;;;;32.23;45.88;98091.56;4970728;28;20432;-79
2023/06/22 10:13:31;;;;;;;1999.90;999.90;;;;;;;32.72;45.53;98095.38;4968525;28;20027;-79
2023/06/22 10:15:57;;;;;;;1999.90;999.90;;;;;;;33.01;45.38;98106.06;4971056;28;20034;-78
2023/06/22 10:18:22;;;;;;;1999.90;999.90;;;;;;;33.47;44.69;98097.22;4969992;28;20042;-79
2023/06/22 10:20:51;;;;;;;1999.90;999.90;;;;;;;33.39;45.26;98098.66;4970029;28;20066;-79
2023/06/22 10:23:16;;;;;;;1999.90;999.90;;;;;;;33.58;44.48;98096.97;4969395;28;20011;-79
2023/06/22 10:25:41;;;;;;;1999.90;999.90;;;;;;;33.87;45.04;98101.44;4969780;28;20034;-79
2023/06/22 10:28:07;;;;;;;1999.90;999.90;;;;;;;33.55;46.21;98095.78;4969885;28;20011;-79
2023/06/22 10:30:32;;;;;;;1999.90;999.90;;;;;;;33.21;46.26;98092.59;4971261;28;20339;-79
2023/06/22 10:32:57;;;;;;;1999.90;999.90;;;;;;;33.71;45.25;98098.63;4969804;28;20030;-78
2023/06/22 10:35:23;;;;;;;1999.90;999.90;;;;;;;34.14;44.31;98086.94;4971346;28;20117;-79
2023/06/22 10:37:49;;;;;;;1999.90;999.90;;;;;;;34.16;44.66;98090.13;4986349;28;20280;-78
2023/06/22 10:40:15;;;;;;;1999.90;999.90;;;;;;;34.16;44.24;98083.63;5004953;28;20033;-80
2023/06/22 10:42:41;;;;;;;1999.90;999.90;;;;;;;33.96;44.83;98078.06;4973323;28;20036;-77
2023/06/22 10:45:08;;;;;;;1999.90;999.90;;;;;;;34.14;44.23;98077.63;4953779;28;20358;-78
2023/06/22 10:47:33;;;;;;;1999.90;999.90;;;;;;;34.23;44.24;98078.56;4952202;28;20511;-79
2023/06/22 10:49:59;;;;;;;1999.90;999.90;;;;;;;34.73;43.36;98077.06;4970717;28;20027;-80